createdAt,value
2023-05-14T00:00:22.318Z,7189.00
2023-05-14T00:01:22.175Z,7413.00
2023-05-14T00:02:22.205Z,7577.00
2023-05-14T00:03:22.307Z,7734.00
2023-05-14T00:04:22.310Z,7772.00
2023-05-14T00:05:22.217Z,7863.00
2023-05-14T00:06:22.244Z,7981.00
2023-05-14T00:07:22.256Z,8038.00
2023-05-14T00:08:22.219Z,7998.00
2023-05-14T00:09:22.264Z,7875.00
2023-05-14T00:10:22.387Z,7650.00
2023-05-14T00:11:22.350Z,7660.00
2023-05-14T00:12:22.401Z,7699.00
2023-05-14T00:13:22.489Z,7621.00
2023-05-14T00:14:22.467Z,7581.00
2023-05-14T00:15:22.407Z,7607.00
2023-05-14T00:16:22.527Z,7654.00
2023-05-14T00:17:22.553Z,7716.00
2023-05-14T00:18:22.597Z,7710.00
2023-05-14T00:19:22.660Z,7611.00
2023-05-14T00:20:23.451Z,7671.00
2023-05-14T00:21:22.726Z,7665.00
2023-05-14T00:22:22.722Z,7683.00
2023-05-14T00:23:22.742Z,7632.00
2023-05-14T00:24:23.091Z,7454.00
2023-05-14T00:25:22.739Z,7436.00
2023-05-14T00:26:22.750Z,7425.00
2023-05-14T00:27:23.672Z,7461.00
2023-05-14T00:28:22.753Z,7308.00
2023-05-14T00:29:22.819Z,7251.00
2023-05-14T00:30:22.981Z,7241.00
2023-05-14T00:31:22.921Z,7171.00
2023-05-14T00:32:23.087Z,7253.00
2023-05-14T00:33:22.952Z,7246.00
2023-05-14T00:34:22.955Z,7273.00
2023-05-14T00:35:23.034Z,7256.00
2023-05-14T00:36:23.039Z,7293.00
2023-05-14T00:37:23.071Z,7350.00
2023-05-14T00:38:23.178Z,7379.00
2023-05-14T00:39:23.141Z,7360.00
2023-05-14T00:40:23.412Z,7312.00
2023-05-14T00:41:23.215Z,7270.00
2023-05-14T00:42:23.160Z,7189.00
2023-05-14T00:43:23.183Z,7175.00
2023-05-14T00:44:23.277Z,7176.00
2023-05-14T00:45:23.248Z,7159.00
2023-05-14T00:46:23.464Z,7124.00
2023-05-14T00:47:23.386Z,7012.00
2023-05-14T00:48:23.416Z,7041.00
2023-05-14T00:49:23.419Z,6911.00
2023-05-14T00:50:23.904Z,6859.00
2023-05-14T00:51:23.480Z,6784.00
2023-05-14T00:52:23.502Z,6598.00
2023-05-14T00:53:23.556Z,6584.00
2023-05-14T00:54:23.658Z,6621.00
2023-05-14T00:55:23.606Z,6633.00
2023-05-14T00:56:23.622Z,6626.00
2023-05-14T00:57:23.652Z,6611.00
2023-05-14T00:58:23.630Z,6526.00
2023-05-14T00:59:23.694Z,6430.00
2023-05-14T01:00:23.935Z,6424.00
2023-05-14T01:01:23.766Z,6415.00
2023-05-14T01:02:23.763Z,6219.00
2023-05-14T01:03:23.810Z,6158.00
2023-05-14T01:04:23.825Z,6144.00
2023-05-14T01:05:23.788Z,6137.00
2023-05-14T01:06:23.827Z,6170.00
2023-05-14T01:07:23.845Z,6213.00
2023-05-14T01:08:23.856Z,6104.00
2023-05-14T01:09:23.878Z,6041.00
2023-05-14T01:10:24.127Z,6074.00
2023-05-14T01:11:23.879Z,6121.00
2023-05-14T01:12:23.900Z,6097.00
2023-05-14T01:13:23.874Z,6170.00
2023-05-14T01:14:23.920Z,6125.00
2023-05-14T01:15:24.009Z,5975.00
2023-05-14T01:16:23.970Z,5861.00
2023-05-14T01:17:24.292Z,5846.00
2023-05-14T01:18:24.068Z,5888.00
2023-05-14T01:19:24.032Z,5979.00
2023-05-14T01:20:24.347Z,6015.00
2023-05-14T01:21:24.058Z,6080.00
2023-05-14T01:22:24.059Z,6178.00
2023-05-14T01:23:24.059Z,6158.00
2023-05-14T01:24:24.155Z,6087.00
2023-05-14T01:25:24.171Z,6087.00
2023-05-14T01:26:24.201Z,6003.00
2023-05-14T01:27:24.723Z,5990.00
2023-05-14T01:28:24.255Z,5957.00
2023-05-14T01:29:24.337Z,6097.00
2023-05-14T01:30:24.677Z,6236.00
2023-05-14T01:31:24.323Z,6398.00
2023-05-14T01:32:24.343Z,6594.00
2023-05-14T01:33:24.331Z,6808.00
2023-05-14T01:34:24.332Z,6955.00
2023-05-14T01:35:24.394Z,7024.00
2023-05-14T01:36:24.370Z,7036.00
2023-05-14T01:37:24.388Z,6997.00
2023-05-14T01:38:24.416Z,7009.00
2023-05-14T01:39:25.420Z,7006.00
2023-05-14T01:40:24.816Z,7027.00
2023-05-14T01:41:24.568Z,7062.00
2023-05-14T01:42:24.599Z,7046.00
2023-05-14T01:43:24.668Z,6996.00
2023-05-14T01:44:24.695Z,6987.00
2023-05-14T01:45:24.738Z,7020.00
2023-05-14T01:46:24.722Z,7042.00
2023-05-14T01:47:24.799Z,7094.00
2023-05-14T01:48:24.780Z,7143.00
2023-05-14T01:49:24.847Z,7180.00
2023-05-14T01:50:25.044Z,6926.00
2023-05-14T01:51:24.894Z,6872.00
2023-05-14T01:52:24.933Z,6641.00
2023-05-14T01:53:24.915Z,6547.00
2023-05-14T01:54:24.944Z,6451.00
2023-05-14T01:55:24.985Z,6387.00
2023-05-14T01:56:25.000Z,6360.00
2023-05-14T01:57:25.076Z,6306.00
2023-05-14T01:58:25.073Z,6305.00
2023-05-14T01:59:25.105Z,6355.00
2023-05-14T02:00:25.369Z,6302.00
2023-05-14T02:01:25.156Z,6346.00
2023-05-14T02:02:25.203Z,6347.00
2023-05-14T02:03:25.511Z,6376.00
2023-05-14T02:04:25.174Z,6423.00
2023-05-14T02:05:25.198Z,6595.00
2023-05-14T02:06:25.222Z,6657.00
2023-05-14T02:07:25.272Z,6655.00
2023-05-14T02:08:25.305Z,6670.00
2023-05-14T02:09:25.429Z,6725.00
2023-05-14T02:10:25.585Z,6753.00
2023-05-14T02:11:25.445Z,6734.00
2023-05-14T02:12:25.490Z,6685.00
2023-05-14T02:13:25.514Z,6743.00
2023-05-14T02:14:26.292Z,6795.00
2023-05-14T02:15:26.001Z,6929.00
2023-05-14T02:16:25.825Z,6895.00
2023-05-14T02:17:25.754Z,6975.00
2023-05-14T02:18:25.858Z,6937.00
2023-05-14T02:19:25.760Z,6907.00
2023-05-14T02:20:25.964Z,6903.00
2023-05-14T02:21:25.772Z,6888.00
2023-05-14T02:22:25.768Z,6909.00
2023-05-14T02:23:37.949Z,6971.00
2023-05-14T02:24:27.608Z,6973.00
2023-05-14T02:25:25.841Z,6982.00
2023-05-14T02:26:25.813Z,7010.00
2023-05-14T02:27:25.772Z,7047.00
2023-05-14T02:28:25.782Z,7077.00
2023-05-14T02:29:25.746Z,7067.00
2023-05-14T02:30:25.900Z,7029.00
2023-05-14T02:31:25.819Z,7001.00
2023-05-14T02:32:25.788Z,7046.00
2023-05-14T02:33:25.800Z,7074.00
2023-05-14T02:34:25.794Z,7087.00
2023-05-14T02:35:25.852Z,7141.00
2023-05-14T02:36:25.902Z,7198.00
2023-05-14T02:37:25.918Z,7156.00
2023-05-14T02:38:25.984Z,7089.00
2023-05-14T02:39:26.017Z,7069.00
2023-05-14T02:40:26.171Z,6989.00
2023-05-14T02:41:26.036Z,6792.00
2023-05-14T02:42:26.107Z,6718.00
2023-05-14T02:43:26.145Z,6621.00
2023-05-14T02:44:26.145Z,6558.00
2023-05-14T02:45:26.143Z,6585.00
2023-05-14T02:46:26.136Z,6504.00
2023-05-14T02:47:26.214Z,6407.00
2023-05-14T02:48:26.207Z,6210.00
2023-05-14T02:49:26.282Z,6141.00
2023-05-14T02:50:26.424Z,6114.00
2023-05-14T02:51:26.303Z,6049.00
2023-05-14T02:52:26.386Z,6038.00
2023-05-14T02:53:26.409Z,6045.00
2023-05-14T02:54:26.506Z,6060.00
2023-05-14T02:55:26.624Z,6058.00
2023-05-14T02:56:26.586Z,6039.00
2023-05-14T02:57:26.618Z,6051.00
2023-05-14T02:58:28.450Z,6041.00
2023-05-14T02:59:26.731Z,6039.00
2023-05-14T03:00:26.819Z,6008.00
2023-05-14T03:01:26.868Z,5945.00
2023-05-14T03:02:26.967Z,5841.00
2023-05-14T03:03:26.910Z,5732.00
2023-05-14T03:04:26.923Z,5751.00
2023-05-14T03:05:26.991Z,5833.00
2023-05-14T03:06:27.094Z,5850.00
2023-05-14T03:07:27.073Z,5854.00
2023-05-14T03:08:27.137Z,5877.00
2023-05-14T03:09:27.184Z,5908.00
2023-05-14T03:10:27.264Z,5946.00
2023-05-14T03:11:34.888Z,5985.00
2023-05-14T03:12:27.331Z,5986.00
2023-05-14T03:13:27.236Z,5999.00
2023-05-14T03:14:27.261Z,6045.00
2023-05-14T03:15:27.234Z,6118.00
2023-05-14T03:16:27.285Z,6238.00
2023-05-14T03:17:27.235Z,6300.00
2023-05-14T03:18:27.234Z,6352.00
2023-05-14T03:19:27.204Z,6316.00
2023-05-14T03:20:27.210Z,6333.00
2023-05-14T03:21:27.163Z,6317.00
2023-05-14T03:22:27.164Z,6305.00
2023-05-14T03:23:27.181Z,6319.00
2023-05-14T03:24:27.219Z,6299.00
2023-05-14T03:25:27.183Z,6251.00
2023-05-14T03:26:27.226Z,6161.00
2023-05-14T03:27:27.260Z,6148.00
2023-05-14T03:28:27.294Z,6172.00
2023-05-14T03:29:27.388Z,6029.00
2023-05-14T03:30:27.448Z,5961.00
2023-05-14T03:31:27.517Z,5956.00
2023-05-14T03:32:27.490Z,5972.00
2023-05-14T03:33:27.482Z,5965.00
2023-05-14T03:34:27.526Z,5862.00
2023-05-14T03:35:27.545Z,5842.00
2023-05-14T03:36:27.536Z,5851.00
2023-05-14T03:37:27.592Z,5819.00
2023-05-14T03:38:27.619Z,5821.00
2023-05-14T03:39:27.651Z,6011.00
2023-05-14T03:40:27.631Z,6055.00
2023-05-14T03:41:27.676Z,5904.00
2023-05-14T03:42:27.727Z,5743.00
2023-05-14T03:43:27.744Z,5573.00
2023-05-14T03:44:27.788Z,5531.00
2023-05-14T03:45:27.834Z,5508.00
2023-05-14T03:46:27.786Z,5496.00
2023-05-14T03:47:27.855Z,5497.00
2023-05-14T03:48:28.109Z,5710.00
2023-05-14T03:49:27.980Z,5876.00
2023-05-14T03:50:28.009Z,5985.00
2023-05-14T03:51:28.057Z,6147.00
2023-05-14T03:52:28.137Z,6069.00
2023-05-14T03:53:28.167Z,6062.00
2023-05-14T03:54:28.230Z,6045.00
2023-05-14T03:55:28.263Z,6017.00
2023-05-14T03:56:28.344Z,6059.00
2023-05-14T03:57:28.370Z,6345.00
2023-05-14T03:58:28.398Z,6440.00
2023-05-14T03:59:28.424Z,6288.00
2023-05-14T04:00:36.046Z,6249.00
2023-05-14T04:01:28.455Z,6250.00
2023-05-14T04:02:28.528Z,6255.00
2023-05-14T04:03:28.546Z,6259.00
2023-05-14T04:04:28.549Z,6228.00
2023-05-14T04:05:28.419Z,6242.00
2023-05-14T04:06:28.412Z,6207.00
2023-05-14T04:07:28.411Z,6066.00
2023-05-14T04:08:28.402Z,6143.00
2023-05-14T04:09:28.380Z,6261.00
2023-05-14T04:10:28.387Z,6419.00
2023-05-14T04:11:28.381Z,6546.00
2023-05-14T04:12:28.356Z,6515.00
2023-05-14T04:13:28.363Z,6501.00
2023-05-14T04:14:28.417Z,6464.00
2023-05-14T04:15:28.514Z,6393.00
2023-05-14T04:16:28.960Z,6359.00
2023-05-14T04:17:28.654Z,6303.00
2023-05-14T04:18:28.673Z,6297.00
2023-05-14T04:19:29.067Z,6320.00
2023-05-14T04:20:28.718Z,6140.00
2023-05-14T04:21:28.809Z,6072.00
2023-05-14T04:22:28.782Z,6064.00
2023-05-14T04:23:28.839Z,6092.00
2023-05-14T04:24:28.851Z,5975.00
2023-05-14T04:25:28.891Z,5762.00
2023-05-14T04:26:28.972Z,5709.00
2023-05-14T04:27:29.025Z,5771.00
2023-05-14T04:28:29.136Z,5777.00
2023-05-14T04:29:29.149Z,5760.00
2023-05-14T04:30:29.143Z,5755.00
2023-05-14T04:31:29.145Z,5768.00
2023-05-14T04:32:29.173Z,5834.00
2023-05-14T04:33:29.240Z,5813.00
2023-05-14T04:34:29.215Z,5823.00
2023-05-14T04:35:29.238Z,5891.00
2023-05-14T04:36:29.384Z,5855.00
2023-05-14T04:37:29.235Z,5855.00
2023-05-14T04:38:29.281Z,5756.00
2023-05-14T04:39:29.305Z,5751.00
2023-05-14T04:40:29.268Z,5697.00
2023-05-14T04:41:29.295Z,5543.00
2023-05-14T04:42:29.365Z,5515.00
2023-05-14T04:43:29.379Z,5572.00
2023-05-14T04:44:29.385Z,5614.00
2023-05-14T04:45:29.437Z,5631.00
2023-05-14T04:46:29.685Z,5725.00
2023-05-14T04:47:29.649Z,5864.00
2023-05-14T04:48:29.621Z,5910.00
2023-05-14T04:49:29.677Z,5951.00
2023-05-14T04:50:29.693Z,5684.00
2023-05-14T04:51:29.734Z,5575.00
2023-05-14T04:52:29.697Z,5505.00
2023-05-14T04:53:29.747Z,5397.00
2023-05-14T04:54:29.853Z,5128.00
2023-05-14T04:55:29.809Z,4971.00
2023-05-14T04:56:29.886Z,4855.00
2023-05-14T04:57:29.965Z,4883.00
2023-05-14T04:58:30.783Z,4972.00
2023-05-14T04:59:30.298Z,5153.00
2023-05-14T05:00:30.002Z,5222.00
2023-05-14T05:01:30.036Z,5380.00
2023-05-14T05:02:30.053Z,5377.00
2023-05-14T05:03:30.120Z,5422.00
2023-05-14T05:04:30.147Z,5326.00
2023-05-14T05:05:30.200Z,5227.00
2023-05-14T05:06:30.243Z,5194.00
2023-05-14T05:07:30.253Z,5217.00
2023-05-14T05:08:30.272Z,5245.00
2023-05-14T05:09:30.282Z,5339.00
2023-05-14T05:10:30.346Z,5417.00
2023-05-14T05:11:30.375Z,5488.00
2023-05-14T05:12:30.385Z,5478.00
2023-05-14T05:13:30.360Z,5500.00
2023-05-14T05:14:30.528Z,5354.00
2023-05-14T05:15:30.395Z,5309.00
2023-05-14T05:16:30.451Z,5283.00
2023-05-14T05:17:30.555Z,5207.00
2023-05-14T05:18:30.612Z,5258.00
2023-05-14T05:19:42.410Z,5383.00
2023-05-14T05:20:31.590Z,5384.00
2023-05-14T05:21:30.621Z,5387.00
2023-05-14T05:22:30.572Z,5458.00
2023-05-14T05:23:30.585Z,5874.00
2023-05-14T05:24:30.591Z,6228.00
2023-05-14T05:25:30.558Z,5877.00
2023-05-14T05:26:30.549Z,5703.00
2023-05-14T05:27:30.902Z,5635.00
2023-05-14T05:28:30.575Z,5558.00
2023-05-14T05:29:30.617Z,5529.00
2023-05-14T05:30:30.681Z,5534.00
2023-05-14T05:31:30.754Z,5380.00
2023-05-14T05:32:30.827Z,5262.00
2023-05-14T05:33:30.846Z,5113.00
2023-05-14T05:34:30.869Z,4945.00
2023-05-14T05:35:30.862Z,4769.00
2023-05-14T05:36:30.904Z,4644.00
2023-05-14T05:37:30.972Z,4600.00
2023-05-14T05:38:30.933Z,5322.00
2023-05-14T05:39:31.011Z,5327.00
2023-05-14T05:40:31.026Z,5274.00
2023-05-14T05:41:31.108Z,5263.00
2023-05-14T05:42:31.120Z,5008.00
2023-05-14T05:43:31.221Z,4680.00
2023-05-14T05:44:31.242Z,4565.00
2023-05-14T05:45:31.213Z,4399.00
2023-05-14T05:46:31.293Z,4385.00
2023-05-14T05:47:31.386Z,4503.00
2023-05-14T05:48:31.416Z,4540.00
2023-05-14T05:49:31.465Z,4641.00
2023-05-14T05:50:31.470Z,4683.00
2023-05-14T05:51:31.526Z,4726.00
2023-05-14T05:52:31.635Z,4769.00
2023-05-14T05:53:31.634Z,4754.00
2023-05-14T05:54:31.786Z,5071.00
2023-05-14T05:55:31.774Z,5060.00
2023-05-14T05:56:31.773Z,4956.00
2023-05-14T05:57:31.820Z,4934.00
2023-05-14T05:58:31.865Z,5017.00
2023-05-14T05:59:31.856Z,5069.00
2023-05-14T06:00:31.899Z,5088.00
2023-05-14T06:01:31.936Z,5223.00
2023-05-14T06:02:32.239Z,5248.00
2023-05-14T06:03:32.001Z,5375.00
2023-05-14T06:04:32.046Z,5379.00
2023-05-14T06:05:32.057Z,5316.00
2023-05-14T06:06:32.091Z,5212.00
2023-05-14T06:07:32.101Z,5202.00
2023-05-14T06:08:32.179Z,5290.00
2023-05-14T06:09:32.155Z,5395.00
2023-05-14T06:10:32.173Z,5322.00
2023-05-14T06:11:32.219Z,5200.00
2023-05-14T06:12:32.233Z,4953.00
2023-05-14T06:13:32.253Z,5363.00
2023-05-14T06:14:32.353Z,5351.00
2023-05-14T06:15:32.366Z,5248.00
2023-05-14T06:16:32.495Z,5065.00
2023-05-14T06:17:32.512Z,4890.00
2023-05-14T06:18:32.540Z,4678.00
2023-05-14T06:19:32.572Z,4582.00
2023-05-14T06:20:32.601Z,4115.00
2023-05-14T06:21:32.642Z,3996.00
2023-05-14T06:22:32.637Z,3948.00
2023-05-14T06:23:32.686Z,4024.00
2023-05-14T06:24:32.750Z,3931.00
2023-05-14T06:25:32.748Z,3844.00
2023-05-14T06:26:32.798Z,3806.00
2023-05-14T06:27:32.861Z,3841.00
2023-05-14T06:28:32.909Z,3953.00
2023-05-14T06:29:32.972Z,4218.00
2023-05-14T06:30:33.035Z,4287.00
2023-05-14T06:31:33.098Z,4286.00
2023-05-14T06:32:33.134Z,4215.00
2023-05-14T06:33:33.085Z,4131.00
2023-05-14T06:34:33.100Z,4097.00
2023-05-14T06:35:33.091Z,4076.00
2023-05-14T06:36:33.111Z,4068.00
2023-05-14T06:37:33.164Z,4079.00
2023-05-14T06:38:33.200Z,4194.00
2023-05-14T06:39:33.309Z,4306.00
2023-05-14T06:40:33.244Z,4222.00
2023-05-14T06:41:33.425Z,4178.00
2023-05-14T06:42:33.347Z,4078.00
2023-05-14T06:43:33.429Z,4077.00
2023-05-14T06:44:33.470Z,4071.00
2023-05-14T06:45:33.498Z,4041.00
2023-05-14T06:46:33.499Z,4036.00
2023-05-14T06:47:33.617Z,3965.00
2023-05-14T06:48:33.563Z,3937.00
2023-05-14T06:49:33.619Z,3955.00
2023-05-14T06:50:33.591Z,3971.00
2023-05-14T06:51:33.575Z,3921.00
2023-05-14T06:52:33.574Z,3906.00
2023-05-14T06:53:33.583Z,4015.00
2023-05-14T06:54:33.600Z,3970.00
2023-05-14T06:55:33.633Z,3881.00
2023-05-14T06:56:33.659Z,3805.00
2023-05-14T06:57:33.630Z,3717.00
2023-05-14T06:58:33.671Z,3687.00
2023-05-14T06:59:33.721Z,3663.00
2023-05-14T07:00:33.729Z,3738.00
2023-05-14T07:01:33.826Z,3777.00
2023-05-14T07:02:33.934Z,3842.00
2023-05-14T07:03:33.917Z,3640.00
2023-05-14T07:04:33.883Z,3457.00
2023-05-14T07:05:33.849Z,3375.00
2023-05-14T07:06:33.832Z,3333.00
2023-05-14T07:07:33.908Z,3344.00
2023-05-14T07:08:33.889Z,3250.00
2023-05-14T07:09:33.957Z,3224.00
2023-05-14T07:10:33.947Z,3270.00
2023-05-14T07:11:33.934Z,3319.00
2023-05-14T07:12:33.954Z,3272.00
2023-05-14T07:13:33.980Z,3288.00
2023-05-14T07:14:34.048Z,3234.00
2023-05-14T07:15:34.003Z,3663.00
2023-05-14T07:16:34.129Z,3521.00
2023-05-14T07:17:34.087Z,3273.00
2023-05-14T07:18:34.104Z,3131.00
2023-05-14T07:19:34.132Z,2990.00
2023-05-14T07:20:34.120Z,3075.00
2023-05-14T07:21:34.205Z,3095.00
2023-05-14T07:22:34.269Z,3117.00
2023-05-14T07:23:34.357Z,3203.00
2023-05-14T07:24:34.380Z,3229.00
2023-05-14T07:25:34.444Z,3186.00
2023-05-14T07:26:34.484Z,3151.00
2023-05-14T07:27:34.548Z,3242.00
2023-05-14T07:28:34.545Z,3309.00
2023-05-14T07:29:34.667Z,3331.00
2023-05-14T07:30:34.687Z,3510.00
2023-05-14T07:31:34.821Z,3527.00
2023-05-14T07:32:34.808Z,3495.00
2023-05-14T07:33:34.732Z,3503.00
2023-05-14T07:34:34.834Z,3525.00
2023-05-14T07:35:34.865Z,3593.00
2023-05-14T07:36:35.796Z,3641.00
2023-05-14T07:37:34.886Z,3705.00
2023-05-14T07:38:34.876Z,3676.00
2023-05-14T07:39:34.928Z,3420.00
2023-05-14T07:40:35.008Z,3321.00
2023-05-14T07:41:35.065Z,3346.00
2023-05-14T07:42:36.931Z,3451.00
2023-05-14T07:43:35.179Z,3651.00
2023-05-14T07:44:35.128Z,3737.00
2023-05-14T07:45:35.134Z,3720.00
2023-05-14T07:46:35.155Z,3657.00
2023-05-14T07:47:35.235Z,3659.00
2023-05-14T07:48:35.204Z,3744.00
2023-05-14T07:49:35.306Z,3668.00
2023-05-14T07:50:35.247Z,3552.00
2023-05-14T07:51:35.278Z,3597.00
2023-05-14T07:52:35.286Z,3658.00
2023-05-14T07:53:35.271Z,3642.00
2023-05-14T07:54:35.294Z,3653.00
2023-05-14T07:55:35.382Z,3708.00
2023-05-14T07:56:35.305Z,3675.00
2023-05-14T07:57:35.296Z,3822.00
2023-05-14T07:58:35.428Z,3733.00
2023-05-14T07:59:35.539Z,3519.00
2023-05-14T08:00:35.550Z,3349.00
2023-05-14T08:01:37.108Z,3283.00
2023-05-14T08:02:35.672Z,3371.00
2023-05-14T08:03:35.636Z,3778.00
2023-05-14T08:04:35.637Z,3817.00
2023-05-14T08:05:35.550Z,3690.00
2023-05-14T08:06:35.561Z,3302.00
2023-05-14T08:07:35.567Z,3182.00
2023-05-14T08:08:35.552Z,3203.00
2023-05-14T08:09:35.563Z,3403.00
2023-05-14T08:10:35.557Z,3279.00
2023-05-14T08:11:35.504Z,3181.00
2023-05-14T08:12:35.506Z,3044.00
2023-05-14T08:13:35.469Z,2887.00
2023-05-14T08:14:35.593Z,2686.00
2023-05-14T08:15:35.464Z,2632.00
2023-05-14T08:16:35.511Z,2755.00
2023-05-14T08:17:35.482Z,2573.00
2023-05-14T08:18:35.438Z,2499.00
2023-05-14T08:19:35.460Z,2456.00
2023-05-14T08:20:35.467Z,2464.00
2023-05-14T08:21:35.452Z,2523.00
2023-05-14T08:22:35.436Z,2471.00
2023-05-14T08:23:35.489Z,2216.00
2023-05-14T08:24:35.465Z,2340.00
2023-05-14T08:25:35.417Z,2384.00
2023-05-14T08:26:35.415Z,2111.00
2023-05-14T08:27:35.437Z,2148.00
2023-05-14T08:28:35.400Z,2173.00
2023-05-14T08:29:35.432Z,1979.00
2023-05-14T08:30:35.415Z,1941.00
2023-05-14T08:31:35.427Z,2096.00
2023-05-14T08:32:35.429Z,2097.00
2023-05-14T08:33:35.381Z,1982.00
2023-05-14T08:34:35.371Z,1718.00
2023-05-14T08:35:35.357Z,1770.00
2023-05-14T08:36:35.367Z,1924.00
2023-05-14T08:37:35.303Z,2042.00
2023-05-14T08:38:35.342Z,2121.00
2023-05-14T08:39:35.357Z,1995.00
2023-05-14T08:40:35.304Z,1861.00
2023-05-14T08:41:35.313Z,1597.00
2023-05-14T08:42:35.307Z,1559.00
2023-05-14T08:43:35.302Z,1166.00
2023-05-14T08:44:35.358Z,1081.00
2023-05-14T08:45:35.279Z,829.00
2023-05-14T08:46:35.326Z,656.00
2023-05-14T08:47:35.340Z,691.00
2023-05-14T08:48:35.666Z,913.00
2023-05-14T08:49:35.342Z,1262.00
2023-05-14T08:50:35.253Z,948.00
2023-05-14T08:51:35.255Z,747.00
2023-05-14T08:52:35.245Z,664.00
2023-05-14T08:53:35.228Z,651.00
2023-05-14T08:54:35.247Z,500.00
2023-05-14T08:55:35.247Z,470.00
2023-05-14T08:56:35.172Z,400.00
2023-05-14T08:57:35.201Z,400.00
2023-05-14T08:58:35.290Z,400.00
2023-05-14T08:59:35.320Z,400.00
2023-05-14T09:00:35.384Z,400.00
2023-05-14T09:01:35.450Z,477.00
2023-05-14T09:02:35.457Z,471.00
2023-05-14T09:03:35.545Z,503.00
2023-05-14T09:04:35.525Z,563.00
2023-05-14T09:05:35.524Z,496.00
2023-05-14T09:06:35.524Z,490.00
2023-05-14T09:07:35.661Z,423.00
2023-05-14T09:08:35.602Z,596.00
2023-05-14T09:09:35.683Z,583.00
2023-05-14T09:10:35.656Z,516.00
2023-05-14T09:11:35.685Z,506.00
2023-05-14T09:12:36.768Z,496.00
2023-05-14T09:13:35.837Z,500.00
2023-05-14T09:14:35.846Z,500.00
2023-05-14T09:15:35.924Z,481.00
2023-05-14T09:16:35.991Z,501.00
2023-05-14T09:17:36.008Z,500.00
2023-05-14T09:18:36.039Z,629.00
2023-05-14T09:19:36.036Z,751.00
2023-05-14T09:20:36.060Z,735.00
2023-05-14T09:21:36.091Z,612.00
2023-05-14T09:22:36.105Z,663.00
2023-05-14T09:23:36.183Z,1423.00
2023-05-14T09:24:36.192Z,1443.00
2023-05-14T09:25:36.218Z,1198.00
2023-05-14T09:26:36.274Z,1404.00
2023-05-14T09:27:36.320Z,1455.00
2023-05-14T09:28:36.358Z,979.00
2023-05-14T09:29:36.430Z,987.00
2023-05-14T09:30:36.434Z,1069.00
2023-05-14T09:31:36.503Z,1143.00
2023-05-14T09:32:36.515Z,1244.00
2023-05-14T09:33:36.565Z,1295.00
2023-05-14T09:34:36.584Z,1266.00
2023-05-14T09:35:36.622Z,1075.00
2023-05-14T09:36:36.656Z,1001.00
2023-05-14T09:37:36.721Z,1233.00
2023-05-14T09:38:36.734Z,1316.00
2023-05-14T09:39:36.832Z,1140.00
2023-05-14T09:40:36.791Z,1076.00
2023-05-14T09:41:36.863Z,968.00
2023-05-14T09:42:36.884Z,980.00
2023-05-14T09:43:36.903Z,1259.00
2023-05-14T09:44:36.960Z,1183.00
2023-05-14T09:45:36.945Z,987.00
2023-05-14T09:46:37.015Z,556.00
2023-05-14T09:47:37.195Z,535.00
2023-05-14T09:48:37.211Z,808.00
2023-05-14T09:49:37.203Z,956.00
2023-05-14T09:50:37.190Z,1356.00
2023-05-14T09:51:37.263Z,1360.00
2023-05-14T09:52:37.371Z,1049.00
2023-05-14T09:53:37.345Z,994.00
2023-05-14T09:54:37.420Z,877.00
2023-05-14T09:55:37.462Z,970.00
2023-05-14T09:56:37.527Z,898.00
2023-05-14T09:57:37.554Z,942.00
2023-05-14T09:58:37.581Z,795.00
2023-05-14T09:59:37.717Z,781.00
2023-05-14T10:00:37.733Z,858.00
2023-05-14T10:01:37.909Z,761.00
2023-05-14T10:02:38.204Z,719.00
2023-05-14T10:03:38.270Z,824.00
2023-05-14T10:04:38.015Z,729.00
2023-05-14T10:05:37.967Z,772.00
2023-05-14T10:06:38.006Z,1413.00
2023-05-14T10:07:38.039Z,1579.00
2023-05-14T10:08:38.068Z,1579.00
2023-05-14T10:09:38.101Z,1766.00
2023-05-14T10:10:38.138Z,1715.00
2023-05-14T10:11:38.239Z,1891.00
2023-05-14T10:12:38.244Z,1490.00
2023-05-14T10:13:38.270Z,1180.00
2023-05-14T10:14:38.362Z,1172.00
2023-05-14T10:15:38.324Z,986.00
2023-05-14T10:16:38.484Z,953.00
2023-05-14T10:17:38.420Z,999.00
2023-05-14T10:18:38.430Z,1023.00
2023-05-14T10:19:38.468Z,892.00
2023-05-14T10:20:38.490Z,1449.00
2023-05-14T10:21:38.533Z,1587.00
2023-05-14T10:22:38.551Z,1219.00
2023-05-14T10:23:38.599Z,1094.00
2023-05-14T10:24:38.613Z,773.00
2023-05-14T10:25:38.635Z,645.00
2023-05-14T10:26:38.671Z,957.00
2023-05-14T10:27:38.727Z,1110.00
2023-05-14T10:28:38.788Z,1073.00
2023-05-14T10:29:38.811Z,890.00
2023-05-14T10:30:38.820Z,997.00
2023-05-14T10:31:38.921Z,1090.00
2023-05-14T10:32:38.892Z,594.00
2023-05-14T10:33:38.860Z,545.00
2023-05-14T10:34:38.981Z,979.00
2023-05-14T10:35:38.916Z,1009.00
2023-05-14T10:36:38.996Z,715.00
2023-05-14T10:37:39.004Z,653.00
2023-05-14T10:38:39.087Z,743.00
2023-05-14T10:39:39.566Z,984.00
2023-05-14T10:40:39.077Z,1330.00
2023-05-14T10:41:39.161Z,1652.00
2023-05-14T10:42:39.183Z,1709.00
2023-05-14T10:43:39.194Z,1630.00
2023-05-14T10:44:39.262Z,1602.00
2023-05-14T10:45:39.281Z,1492.00
2023-05-14T10:46:39.369Z,1105.00
2023-05-14T10:47:39.391Z,1397.00
2023-05-14T10:48:39.339Z,1548.00
2023-05-14T10:49:43.296Z,1572.00
2023-05-14T10:50:39.433Z,1493.00
2023-05-14T10:51:39.516Z,1156.00
2023-05-14T10:52:39.428Z,1048.00
2023-05-14T10:53:39.347Z,637.00
2023-05-14T10:54:39.346Z,702.00
2023-05-14T10:55:39.341Z,998.00
2023-05-14T10:56:39.329Z,1183.00
2023-05-14T10:57:39.351Z,1481.00
2023-05-14T10:58:39.308Z,1695.00
2023-05-14T10:59:39.386Z,1763.00
2023-05-14T11:00:39.300Z,1838.00
2023-05-14T11:01:39.293Z,1897.00
2023-05-14T11:02:39.376Z,1509.00
2023-05-14T11:03:39.294Z,1444.00
2023-05-14T11:04:39.309Z,1475.00
2023-05-14T11:05:39.296Z,1730.00
2023-05-14T11:06:39.271Z,1721.00
2023-05-14T11:07:39.289Z,1594.00
2023-05-14T11:08:39.319Z,1326.00
2023-05-14T11:09:39.368Z,1246.00
2023-05-14T11:10:39.457Z,1505.00
2023-05-14T11:11:39.435Z,1411.00
2023-05-14T11:12:39.452Z,1723.00
2023-05-14T11:13:39.540Z,1831.00
2023-05-14T11:14:39.532Z,2184.00
2023-05-14T11:15:39.590Z,1858.00
2023-05-14T11:16:39.669Z,1512.00
2023-05-14T11:17:39.706Z,1458.00
2023-05-14T11:18:39.737Z,1368.00
2023-05-14T11:19:39.701Z,1413.00
2023-05-14T11:20:39.747Z,1494.00
2023-05-14T11:21:39.813Z,1779.00
2023-05-14T11:22:39.794Z,1439.00
2023-05-14T11:23:39.811Z,1593.00
2023-05-14T11:24:39.869Z,1526.00
2023-05-14T11:25:39.946Z,1476.00
2023-05-14T11:26:39.954Z,1769.00
2023-05-14T11:27:39.968Z,2078.00
2023-05-14T11:28:40.016Z,2009.00
2023-05-14T11:29:40.037Z,2214.00
2023-05-14T11:30:40.059Z,2215.00
2023-05-14T11:31:40.062Z,2665.00
2023-05-14T11:32:40.118Z,2987.00
2023-05-14T11:33:40.148Z,2762.00
2023-05-14T11:34:40.086Z,2458.00
2023-05-14T11:35:40.238Z,2142.00
2023-05-14T11:36:40.171Z,2377.00
2023-05-14T11:37:40.208Z,2391.00
2023-05-14T11:38:40.248Z,2097.00
2023-05-14T11:39:40.280Z,1971.00
2023-05-14T11:40:40.292Z,1611.00
2023-05-14T11:41:40.354Z,1593.00
2023-05-14T11:42:40.397Z,1811.00
2023-05-14T11:43:40.374Z,1963.00
2023-05-14T11:44:40.423Z,1728.00
2023-05-14T11:45:40.535Z,1573.00
2023-05-14T11:46:40.598Z,1464.00
2023-05-14T11:47:40.593Z,1524.00
2023-05-14T11:48:40.649Z,1803.00
2023-05-14T11:49:40.713Z,1952.00
2023-05-14T11:50:40.730Z,1604.00
2023-05-14T11:51:40.778Z,1426.00
2023-05-14T11:52:40.810Z,1005.00
2023-05-14T11:53:40.789Z,1486.00
2023-05-14T11:54:40.866Z,1880.00
2023-05-14T11:55:40.906Z,1757.00
2023-05-14T11:56:40.920Z,1599.00
2023-05-14T11:57:40.978Z,1334.00
2023-05-14T11:58:40.991Z,1398.00
2023-05-14T11:59:40.987Z,1649.00
2023-05-14T12:00:41.047Z,1934.00
2023-05-14T12:01:41.123Z,1883.00
2023-05-14T12:02:41.236Z,2005.00
2023-05-14T12:03:41.452Z,1589.00
2023-05-14T12:04:41.263Z,1213.00
2023-05-14T12:05:41.269Z,1316.00
2023-05-14T12:06:41.391Z,1482.00
2023-05-14T12:07:41.354Z,1518.00
2023-05-14T12:08:41.365Z,1239.00